Terminal Aerodrome Forecast
Issued by NWS

Home | Current Version | Previous Version | Text Only | Print | Product List | Glossary On
Versions: 1 2 3 4 5 6 7 8 9 10 11 12
000
FTUS44 KLZK 291100
TAFADF
TAF
KADF 291140Z 2912/3012 25005KT P6SM BKN250 WS020/30030KT
     FM291700 34010G18KT P6SM SCT040
     FM292100 35009KT P6SM BKN025
     FM300100 02003KT P6SM SCT250=

USA.gov is the U.S. government's official web portal to all federal, state and local government web resources and services.